Time;durP1;ratioP1;P1;durP2;ratioP2;P2;SDS_P1;SDS_P2;PMS_P1;PMS_P2;Temp;Humidity;BMP_temperature;BMP_pressure;BME280_temperature;BME280_humidity;BME280_pressure;Samples;Min_cycle;Max_cycle;Signal;HPM_P1;HPM_P2
2022/05/28 00:00:21;;;;;;;1.15;0.73;;;;;;;18.85;38.90;100248.47;5399150;32;35199;-67
2022/05/28 00:03:24;;;;;;;2.67;1.08;;;;;;;19.49;37.68;100235.50;5396653;32;35000;-67
2022/05/28 00:06:29;;;;;;;1.08;0.77;;;;;;;18.48;39.51;100246.84;5409220;32;34792;-69
2022/05/28 00:09:32;;;;;;;0.95;0.90;;;;;;;18.32;39.73;100240.00;5400592;32;34627;-67
2022/05/28 00:12:34;;;;;;;1.60;0.88;;;;;;;18.26;39.79;100251.09;5415629;32;34846;-70
2022/05/28 00:15:37;;;;;;;2.42;0.90;;;;;;;18.44;38.85;100246.22;5369224;32;34108;-70
2022/05/28 00:18:40;;;;;;;1.17;0.73;;;;;;;18.91;38.23;100233.84;5409957;32;35253;-66
2022/05/28 00:21:44;;;;;;;2.55;1.20;;;;;;;18.92;38.81;100239.06;5405551;32;34557;-66
2022/05/28 00:24:46;;;;;;;1.12;0.80;;;;;;;18.65;39.36;100238.44;5399385;32;45419;-66
2022/05/28 00:27:48;;;;;;;1.10;0.80;;;;;;;18.20;39.72;100234.72;5409334;32;34122;-66
2022/05/28 00:30:50;;;;;;;2.57;0.87;;;;;;;18.28;40.59;100229.69;5378836;32;34162;-70
2022/05/28 00:33:52;;;;;;;3.22;0.93;;;;;;;18.66;39.04;100234.81;5393132;32;34394;-70
2022/05/28 00:36:54;;;;;;;1.83;0.88;;;;;;;18.69;38.48;100226.66;5391854;32;34273;-67
2022/05/28 00:39:57;;;;;;;0.70;0.70;;;;;;;18.50;39.29;100232.47;5383778;32;34137;-68
2022/05/28 00:43:00;;;;;;;0.93;0.80;;;;;;;18.34;40.10;100246.03;5404322;32;35510;-68
2022/05/28 00:46:10;;;;;;;0.75;0.73;;;;;;;18.41;40.45;100254.41;5376133;32;34844;-71
2022/05/28 00:49:23;;;;;;;2.00;0.90;;;;;;;18.58;40.07;100246.03;5394844;32;34703;-70
2022/05/28 00:52:26;;;;;;;1.02;0.60;;;;;;;18.96;39.33;100262.81;5388724;32;34985;-70
2022/05/28 00:55:31;;;;;;;1.70;0.90;;;;;;;18.52;40.34;100254.50;5371560;32;34672;-70
2022/05/28 00:58:33;;;;;;;1.23;0.90;;;;;;;19.55;38.42;100244.84;5382379;32;34938;-66
2022/05/28 01:01:38;;;;;;;2.80;1.02;;;;;;;18.70;39.51;100254.97;5393509;32;35310;-67
2022/05/28 01:04:58;;;;;;;1.35;0.70;;;;;;;18.49;40.57;100248.56;5396599;32;34680;-70
2022/05/28 01:08:25;;;;;;;1.25;0.88;;;;;;;17.30;42.62;100255.25;5389205;32;34957;-67
2022/05/28 01:11:48;;;;;;;1.77;0.90;;;;;;;18.15;40.87;100221.75;5390069;32;34850;-67
2022/05/28 01:14:55;;;;;;;1.65;0.85;;;;;;;18.14;41.21;100225.38;5387336;32;46730;-70
2022/05/28 01:18:11;;;;;;;12.90;1.12;;;;;;;18.71;40.18;100227.37;5384593;32;34587;-72
2022/05/28 01:21:25;;;;;;;1.27;1.05;;;;;;;17.40;43.19;100219.13;5414054;32;36562;-66
2022/05/28 01:24:54;;;;;;;3.00;1.12;;;;;;;17.14;43.37;100215.66;5379875;32;34379;-72
2022/05/28 01:28:08;;;;;;;1.77;1.00;;;;;;;17.71;42.72;100215.22;5389167;32;35509;-67
2022/05/28 01:31:11;;;;;;;1.10;0.80;;;;;;;17.50;43.52;100198.06;5407146;32;34434;-70
2022/05/28 01:34:15;;;;;;;2.60;1.00;;;;;;;17.67;43.41;100203.06;5374574;32;36516;-66
2022/05/28 01:37:18;;;;;;;2.60;0.80;;;;;;;17.72;43.12;100186.81;5400447;32;44387;-66
2022/05/28 01:40:21;;;;;;;0.93;0.80;;;;;;;17.72;43.67;100178.84;5374280;32;35167;-66
2022/05/28 01:43:25;;;;;;;2.97;1.12;;;;;;;17.67;43.97;100189.75;5408736;32;34870;-69
2022/05/28 01:46:29;;;;;;;2.70;1.03;;;;;;;16.88;45.93;100198.84;5382122;32;35109;-69
2022/05/28 01:49:32;;;;;;;6.70;1.30;;;;;;;17.15;45.59;100197.91;5379837;32;34779;-66
2022/05/28 01:52:35;;;;;;;2.20;1.08;;;;;;;17.22;45.51;100202.69;5409478;32;35443;-66
2022/05/28 01:55:42;;;;;;;3.30;1.35;;;;;;;17.57;45.18;100202.00;5363775;32;35194;-69
2022/05/28 01:58:44;;;;;;;1.17;1.00;;;;;;;17.39;45.63;100208.59;5411819;32;43012;-67
2022/05/28 02:01:47;;;;;;;1.80;1.27;;;;;;;17.96;44.38;100221.38;5386471;32;34209;-70
2022/05/28 02:04:49;;;;;;;1.80;0.95;;;;;;;17.29;45.78;100227.84;5397445;32;34506;-67
2022/05/28 02:07:51;;;;;;;1.33;1.10;;;;;;;17.57;45.35;100231.22;5404190;32;34486;-70
2022/05/28 02:11:02;;;;;;;1.83;0.97;;;;;;;17.58;45.38;100228.47;5394439;32;34686;-67
2022/05/28 02:14:17;;;;;;;1.77;1.10;;;;;;;17.33;45.88;100232.00;5394663;32;34862;-67
2022/05/28 02:17:21;;;;;;;1.53;1.20;;;;;;;17.39;45.98;100227.19;5396836;32;44598;-71
2022/05/28 02:20:57;;;;;;;4.43;1.10;;;;;;;17.81;45.06;100218.88;5415050;32;35192;-70
2022/05/28 02:24:17;;;;;;;2.43;1.00;;;;;;;18.26;44.15;100207.69;5415086;32;34323;-67
2022/05/28 02:27:20;;;;;;;1.80;1.17;;;;;;;16.70;48.01;100227.47;5387249;32;44482;-70
2022/05/28 02:30:22;;;;;;;4.00;1.30;;;;;;;16.84;48.07;100236.31;5388976;32;34508;-66
2022/05/28 02:33:24;;;;;;;1.27;1.15;;;;;;;17.02;47.70;100230.59;5381785;32;35336;-69
2022/05/28 02:36:27;;;;;;;3.20;1.33;;;;;;;17.20;47.26;100228.50;5410964;32;35550;-67
2022/05/28 02:39:29;;;;;;;1.35;1.05;;;;;;;16.07;50.52;100241.31;5387316;32;35043;-70
2022/05/28 02:42:32;;;;;;;2.80;1.30;;;;;;;16.19;50.14;100240.53;5393110;32;35518;-71
2022/05/28 02:45:34;;;;;;;2.92;1.20;;;;;;;16.73;48.81;100244.97;5411069;32;34602;-67
2022/05/28 02:48:39;;;;;;;4.13;1.43;;;;;;;16.70;48.94;100261.13;5396374;32;34555;-66
2022/05/28 02:51:41;;;;;;;2.10;1.20;;;;;;;17.25;47.63;100263.53;5408743;32;34872;-66
2022/05/28 02:54:43;;;;;;;2.12;1.27;;;;;;;17.69;46.56;100256.94;5390555;32;36349;-70
2022/05/28 02:57:45;;;;;;;4.50;1.00;;;;;;;17.96;45.82;100255.97;5387012;32;44849;-65
2022/05/28 03:00:47;;;;;;;2.80;1.30;;;;;;;17.13;47.49;100252.91;5404461;32;35075;-70
2022/05/28 03:03:49;;;;;;;2.35;1.17;;;;;;;17.98;45.42;100259.38;5396634;32;34936;-66
2022/05/28 03:06:52;;;;;;;2.80;1.20;;;;;;;16.58;48.92;100262.75;5402899;32;34597;-70
2022/05/28 03:09:54;;;;;;;3.65;0.98;;;;;;;16.52;49.19;100260.50;5400765;32;34791;-67
2022/05/28 03:12:56;;;;;;;2.03;1.23;;;;;;;17.20;47.67;100249.75;5401065;32;34810;-67
2022/05/28 03:15:58;;;;;;;2.00;1.37;;;;;;;17.41;46.15;100225.31;5397560;32;35186;-70
2022/05/28 03:19:00;;;;;;;3.90;1.50;;;;;;;17.41;46.17;100226.16;5381793;32;34500;-70
2022/05/28 03:22:03;;;;;;;3.57;1.37;;;;;;;16.93;47.42;100219.75;5411674;32;34892;-68
2022/05/28 03:25:05;;;;;;;2.47;1.30;;;;;;;17.02;46.98;100229.75;5397841;32;35118;-67
2022/05/28 03:28:07;;;;;;;3.33;1.27;;;;;;;17.06;47.27;100231.22;5411569;32;35058;-70
2022/05/28 03:31:09;;;;;;;4.10;1.20;;;;;;;16.67;48.20;100235.59;5389460;32;35519;-66
2022/05/28 03:34:11;;;;;;;2.70;1.30;;;;;;;16.61;48.43;100243.97;5395297;32;34516;-67
2022/05/28 03:37:14;;;;;;;3.57;1.30;;;;;;;17.29;46.84;100234.97;5392636;32;34284;-70
2022/05/28 03:40:16;;;;;;;2.43;1.13;;;;;;;17.29;46.81;100243.78;5402703;32;44348;-67
2022/05/28 03:43:18;;;;;;;2.60;1.63;;;;;;;16.96;48.15;100224.88;5394181;32;35317;-69
2022/05/28 03:46:28;;;;;;;2.80;1.52;;;;;;;16.70;48.89;100221.31;5391971;32;34734;-66
2022/05/28 03:49:35;;;;;;;2.57;1.43;;;;;;;16.91;48.35;100224.31;5399799;32;35073;-71
2022/05/28 03:52:37;;;;;;;1.95;1.30;;;;;;;16.75;48.70;100232.47;5391279;32;34416;-66
2022/05/28 03:55:39;;;;;;;2.43;1.50;;;;;;;16.82;48.81;100246.19;5391730;32;34542;-66
2022/05/28 03:58:41;;;;;;;2.40;1.08;;;;;;;16.65;48.50;100234.00;5382850;32;34686;-70
2022/05/28 04:01:43;;;;;;;3.22;1.30;;;;;;;16.78;48.47;100235.75;5383801;32;34994;-69
2022/05/28 04:04:46;;;;;;;1.77;1.13;;;;;;;16.26;50.00;100240.97;5394687;32;44715;-66
2022/05/28 04:07:48;;;;;;;1.98;1.23;;;;;;;16.79;48.60;100240.13;5387297;32;34650;-66
2022/05/28 04:10:50;;;;;;;3.25;1.30;;;;;;;16.54;49.29;100242.66;5403650;32;35084;-67
2022/05/28 04:13:53;;;;;;;1.70;1.23;;;;;;;17.00;48.35;100243.16;5398397;32;35200;-70
2022/05/28 04:16:55;;;;;;;2.28;1.30;;;;;;;16.80;48.83;100235.66;5410323;32;34735;-70
2022/05/28 04:19:57;;;;;;;2.27;1.30;;;;;;;17.11;48.33;100245.06;5401853;32;34788;-70
2022/05/28 04:22:59;;;;;;;2.87;1.40;;;;;;;16.36;50.55;100247.41;5400020;32;35500;-72
2022/05/28 04:26:01;;;;;;;2.20;1.13;;;;;;;16.66;49.84;100246.31;5408219;32;34709;-70
2022/05/28 04:29:04;;;;;;;4.25;1.42;;;;;;;17.03;48.82;100248.22;5391688;32;35391;-70
2022/05/28 04:32:07;;;;;;;1.65;1.30;;;;;;;16.49;50.26;100228.88;5404452;32;34717;-67
2022/05/28 04:35:09;;;;;;;1.92;1.33;;;;;;;17.49;47.97;100234.44;5383536;32;35526;-69
2022/05/28 04:38:11;;;;;;;2.53;1.30;;;;;;;16.46;50.72;100239.69;5412646;32;35150;-70
2022/05/28 04:41:13;;;;;;;1.87;1.23;;;;;;;16.52;50.19;100237.47;5394401;32;37128;-70
2022/05/28 04:44:15;;;;;;;5.67;1.30;;;;;;;17.30;48.08;100240.16;5398724;32;44426;-67
2022/05/28 04:47:17;;;;;;;2.27;1.20;;;;;;;17.74;47.30;100243.38;5406438;32;35305;-67
2022/05/28 04:50:20;;;;;;;4.62;1.70;;;;;;;17.06;48.69;100258.63;5395857;32;35504;-70
2022/05/28 04:53:22;;;;;;;2.53;1.45;;;;;;;17.31;48.19;100263.13;5410825;32;34180;-70
2022/05/28 04:56:24;;;;;;;2.57;1.43;;;;;;;17.11;48.80;100271.59;5351745;32;34535;-67
2022/05/28 04:59:26;;;;;;;4.77;1.70;;;;;;;17.36;48.40;100278.75;5412304;32;35668;-66
2022/05/28 05:02:28;;;;;;;3.97;1.43;;;;;;;16.43;50.88;100267.25;5399623;32;34580;-67
2022/05/28 05:05:30;;;;;;;1.50;1.30;;;;;;;16.55;50.36;100267.37;5393998;32;34800;-68
2022/05/28 05:08:33;;;;;;;2.92;1.30;;;;;;;17.10;49.16;100267.25;5411919;32;34124;-67
2022/05/28 05:11:35;;;;;;;2.80;1.60;;;;;;;17.02;48.83;100261.63;5391104;32;35244;-66
2022/05/28 05:14:37;;;;;;;2.47;1.60;;;;;;;17.10;48.90;100263.75;5414441;32;34304;-66
2022/05/28 05:17:39;;;;;;;3.67;1.85;;;;;;;17.47;47.76;100273.53;5380448;32;34713;-66
2022/05/28 05:20:41;;;;;;;2.05;1.60;;;;;;;17.49;47.35;100276.09;5411811;32;35263;-69
2022/05/28 05:23:44;;;;;;;3.87;1.60;;;;;;;16.76;48.96;100277.50;5403270;32;35139;-67
2022/05/28 05:26:46;;;;;;;3.08;1.60;;;;;;;17.35;47.42;100271.75;5391922;32;45238;-70
2022/05/28 05:29:48;;;;;;;3.27;1.40;;;;;;;16.92;48.47;100268.50;5416434;32;34809;-66
2022/05/28 05:32:50;;;;;;;2.67;1.60;;;;;;;16.72;48.88;100259.22;5389886;32;35240;-66
2022/05/28 05:35:52;;;;;;;2.62;1.60;;;;;;;17.54;46.98;100263.34;5389585;32;35019;-68
2022/05/28 05:38:54;;;;;;;5.17;1.70;;;;;;;17.89;45.98;100265.34;5400760;32;35146;-66
2022/05/28 05:41:56;;;;;;;3.05;1.45;;;;;;;17.35;47.61;100276.19;5402885;32;35130;-66
2022/05/28 05:44:58;;;;;;;3.78;1.73;;;;;;;18.00;46.38;100268.09;5406853;32;34614;-71
2022/05/28 05:48:01;;;;;;;3.30;1.85;;;;;;;18.72;44.41;100262.81;5386561;32;35069;-67
2022/05/28 05:51:08;;;;;;;2.72;1.37;;;;;;;17.54;46.83;100260.69;5409141;32;35063;-66
2022/05/28 05:54:11;;;;;;;5.82;2.30;;;;;;;17.29;47.88;100272.16;5400045;32;34112;-67
2022/05/28 05:57:13;;;;;;;;;;;;;;;18.36;45.38;100256.59;5381010;32;36735;-70
2022/05/28 06:00:16;;;;;;;2.22;1.42;;;;;;;18.72;44.47;100265.50;5398326;32;44571;-67
2022/05/28 06:03:18;;;;;;;7.93;1.65;;;;;;;18.62;44.65;100258.19;5401298;32;33960;-70
2022/05/28 06:06:20;;;;;;;3.15;1.77;;;;;;;18.98;43.72;100251.06;5394857;32;34940;-69
2022/05/28 06:09:22;;;;;;;2.83;1.45;;;;;;;19.18;43.20;100249.53;5380701;32;35140;-72
2022/05/28 06:12:25;;;;;;;2.87;1.50;;;;;;;18.92;43.95;100243.53;5392559;32;34667;-66
2022/05/28 06:15:27;;;;;;;1.52;1.42;;;;;;;18.98;44.04;100243.06;5373385;32;35239;-71
2022/05/28 06:18:30;;;;;;;3.67;1.53;;;;;;;19.07;43.28;100239.72;5398628;32;34325;-67
2022/05/28 06:21:32;;;;;;;4.75;2.22;;;;;;;19.73;42.09;100243.44;5400699;32;34634;-68
2022/05/28 06:24:34;;;;;;;13.07;2.90;;;;;;;19.69;42.58;100249.12;5407121;32;34652;-70
2022/05/28 06:27:37;;;;;;;4.35;1.80;;;;;;;20.09;41.33;100251.25;5402324;32;34368;-67
2022/05/28 06:30:40;;;;;;;9.65;2.03;;;;;;;19.67;42.65;100262.59;5393959;32;35364;-70
2022/05/28 06:33:43;;;;;;;2.45;1.60;;;;;;;20.60;40.29;100246.19;5411357;32;34649;-71
2022/05/28 06:36:45;;;;;;;3.05;1.58;;;;;;;20.58;39.69;100231.28;5397646;32;45304;-70
2022/05/28 06:39:47;;;;;;;5.28;1.90;;;;;;;21.02;38.76;100255.09;5415359;32;34109;-67
2022/05/28 06:42:51;;;;;;;6.72;1.85;;;;;;;20.65;39.71;100253.81;5392590;32;34359;-67
2022/05/28 06:45:53;;;;;;;4.87;1.55;;;;;;;21.27;38.36;100250.34;5396161;32;35177;-72
2022/05/28 06:48:56;;;;;;;3.75;1.75;;;;;;;20.24;40.27;100255.38;5413864;32;35133;-67
2022/05/28 06:51:58;;;;;;;3.95;1.40;;;;;;;20.49;39.99;100254.25;5391753;32;34873;-66
2022/05/28 06:55:00;;;;;;;3.08;1.40;;;;;;;20.25;36.16;100254.41;5401208;32;35383;-66
2022/05/28 06:58:06;;;;;;;4.78;1.45;;;;;;;20.61;36.02;100253.25;5376397;32;34470;-66
2022/05/28 07:01:09;;;;;;;3.42;1.52;;;;;;;20.55;36.40;100254.59;5406785;32;35267;-67
2022/05/28 07:04:12;;;;;;;3.90;1.30;;;;;;;20.51;35.21;100246.94;5401219;32;34900;-71
2022/05/28 07:07:14;;;;;;;5.60;1.42;;;;;;;20.29;36.93;100242.50;5390464;32;37442;-69
2022/05/28 07:10:16;;;;;;;4.40;1.77;;;;;;;20.79;35.10;100250.81;5400516;32;34580;-67
2022/05/28 07:13:20;;;;;;;4.32;1.67;;;;;;;21.33;34.26;100255.19;5396111;32;34587;-67
2022/05/28 07:16:22;;;;;;;5.68;1.90;;;;;;;21.24;33.98;100258.59;5411624;32;34305;-73
2022/05/28 07:19:24;;;;;;;4.22;1.52;;;;;;;21.30;34.14;100266.12;5400834;32;34376;-67
2022/05/28 07:22:27;;;;;;;4.07;1.58;;;;;;;20.99;35.06;100257.16;5412451;32;34583;-69
2022/05/28 07:25:29;;;;;;;5.68;1.80;;;;;;;21.46;34.14;100268.34;5396994;32;34775;-71
2022/05/28 07:28:33;;;;;;;3.95;1.70;;;;;;;21.29;34.03;100270.63;5392897;32;156036;-67
2022/05/28 07:31:35;;;;;;;6.93;2.15;;;;;;;21.19;34.05;100275.03;5403706;32;34886;-71
2022/05/28 07:34:37;;;;;;;4.28;1.70;;;;;;;20.82;33.82;100272.81;5377760;32;34221;-71
2022/05/28 07:37:40;;;;;;;3.40;1.30;;;;;;;21.41;31.65;100274.06;5392812;32;34347;-67
2022/05/28 07:40:42;;;;;;;6.68;2.12;;;;;;;20.02;34.53;100283.78;5394564;32;34083;-67
2022/05/28 07:43:44;;;;;;;6.03;1.40;;;;;;;21.85;31.52;100277.37;5411091;32;34686;-68
2022/05/28 07:46:47;;;;;;;4.72;1.52;;;;;;;21.90;32.12;100280.50;5394032;32;35145;-66
2022/05/28 07:49:49;;;;;;;4.80;1.62;;;;;;;21.74;32.39;100280.16;5398983;32;34784;-67
2022/05/28 07:52:51;;;;;;;4.20;1.50;;;;;;;21.86;30.69;100276.41;5414931;32;35071;-68
2022/05/28 07:55:53;;;;;;;7.22;2.00;;;;;;;21.80;30.04;100288.47;5370805;32;34874;-71
2022/05/28 07:58:57;;;;;;;4.90;1.40;;;;;;;21.29;30.62;100292.00;5395549;32;34655;-66
2022/05/28 08:01:59;;;;;;;5.40;1.77;;;;;;;21.34;30.02;100288.94;5396201;32;34643;-66
2022/05/28 08:05:02;;;;;;;3.25;1.60;;;;;;;21.21;30.15;100282.94;5381927;32;34546;-67
2022/05/28 08:08:05;;;;;;;7.62;2.20;;;;;;;20.93;31.05;100279.03;5391461;32;34060;-71
2022/05/28 08:11:08;;;;;;;7.03;1.85;;;;;;;20.45;32.10;100292.84;5383971;32;34825;-68
2022/05/28 08:14:10;;;;;;;5.80;1.75;;;;;;;20.40;32.40;100289.66;5415393;32;34063;-71
2022/05/28 08:18:02;;;;;;;9.50;1.90;;;;;;;21.43;31.11;100290.81;5371774;32;34943;-67
2022/05/28 08:24:32;;;;;;;11.00;1.98;;;;;;;20.82;31.79;100293.31;5414211;32;34842;-67
2022/05/28 08:27:36;;;;;;;3.28;1.48;;;;;;;21.33;31.59;100287.25;5389495;32;34628;-68
2022/05/28 08:30:38;;;;;;;4.60;1.80;;;;;;;21.19;32.12;100290.22;5407110;32;34453;-67
2022/05/28 08:33:41;;;;;;;6.60;1.77;;;;;;;20.69;32.89;100296.16;5393463;32;35282;-67
2022/05/28 08:36:43;;;;;;;6.30;1.50;;;;;;;21.21;31.92;100282.94;5402111;32;33962;-70
2022/05/28 08:39:49;;;;;;;7.70;2.00;;;;;;;21.05;32.65;100283.38;5393743;32;46685;-67
2022/05/28 08:42:51;;;;;;;6.00;1.83;;;;;;;21.02;32.32;100288.97;5383203;32;35165;-67
2022/05/28 08:45:53;;;;;;;7.97;1.85;;;;;;;22.25;29.94;100289.94;5387650;32;34810;-67
2022/05/28 08:48:57;;;;;;;6.10;1.92;;;;;;;21.73;30.67;100291.84;5392189;32;34551;-67
2022/05/28 08:52:05;;;;;;;4.35;1.52;;;;;;;22.26;29.98;100283.59;5405531;32;36494;-68
2022/05/28 08:55:13;;;;;;;4.87;1.80;;;;;;;21.89;29.54;100281.47;5356683;32;35311;-67
2022/05/28 08:58:20;;;;;;;1.98;1.40;;;;;;;22.33;28.81;100285.59;5379282;32;45434;-71
2022/05/28 09:01:22;;;;;;;5.43;1.83;;;;;;;22.86;28.31;100279.00;5397574;32;35340;-67
2022/05/28 09:04:30;;;;;;;;;;;;;;;22.80;28.90;100274.19;5400773;32;34579;-72
2022/05/28 09:07:32;;;;;;;4.25;1.75;;;;;;;22.04;30.93;100276.62;5402124;32;34795;-67
2022/05/28 09:10:41;;;;;;;5.68;1.58;;;;;;;22.69;30.29;100273.38;5371954;32;32599;-68
2022/05/28 09:13:45;;;;;;;4.80;1.70;;;;;;;21.11;32.24;100282.84;5392062;32;35090;-67
2022/05/28 09:16:48;;;;;;;2.37;1.42;;;;;;;21.94;31.27;100267.69;5394002;32;44537;-71
2022/05/28 09:19:51;;;;;;;7.62;2.33;;;;;;;21.96;31.07;100279.97;5400739;32;34575;-67
2022/05/28 09:22:53;;;;;;;6.55;1.80;;;;;;;21.86;31.87;100265.69;5402053;32;34474;-71
2022/05/28 09:25:59;;;;;;;5.70;1.85;;;;;;;22.34;30.96;100251.63;5385435;32;35021;-68
2022/05/28 09:29:08;;;;;;;5.35;1.90;;;;;;;22.30;31.14;100261.78;5379231;32;34838;-67
2022/05/28 09:32:28;;;;;;;5.80;2.00;;;;;;;22.49;31.11;100265.47;5393138;32;35366;-67
2022/05/28 09:35:48;;;;;;;3.78;1.58;;;;;;;22.32;31.42;100262.47;5394330;32;35500;-67
2022/05/28 09:39:29;;;;;;;5.75;2.08;;;;;;;22.33;29.98;100253.44;5414243;32;44673;-68
2022/05/28 09:42:51;;;;;;;6.18;1.92;;;;;;;22.53;30.82;100254.31;5384736;32;35804;-72
2022/05/28 09:46:23;;;;;;;6.20;2.15;;;;;;;22.69;30.48;100257.31;5383288;32;44477;-69
2022/05/28 09:49:25;;;;;;;8.73;1.87;;;;;;;22.13;31.09;100262.44;5395408;32;35007;-72
2022/05/28 09:54:16;;;;;;;3.62;1.60;;;;;;;22.04;30.36;100261.41;5373158;32;34951;-68
2022/05/28 09:56:23;;;;;;;4.53;1.65;;;;;;;21.41;30.26;100273.22;5387168;32;34539;-70
2022/05/28 09:59:35;;;;;;;8.82;2.17;;;;;;;22.48;28.03;100272.66;5408003;32;38044;-68
2022/05/28 10:02:43;;;;;;;4.27;1.97;;;;;;;21.98;28.49;100271.81;5383399;32;34058;-66
2022/05/28 10:05:54;;;;;;;4.03;1.80;;;;;;;20.81;30.36;100273.78;5400232;32;46628;-71
2022/05/28 10:08:56;;;;;;;6.82;1.73;;;;;;;21.99;28.94;100268.97;5400094;32;34624;-70
2022/05/28 10:11:58;;;;;;;;;;;;;;;21.65;29.71;100264.91;5400749;32;34641;-71
2022/05/28 10:15:09;;;;;;;3.55;1.52;;;;;;;21.70;28.37;100268.00;5398447;32;35765;-70
2022/05/28 10:18:25;;;;;;;3.95;1.52;;;;;;;22.59;26.91;100261.78;5383848;32;34457;-66
2022/05/28 10:21:37;;;;;;;8.52;1.60;;;;;;;23.60;27.37;100252.38;5415072;32;34978;-71
2022/05/28 10:24:43;;;;;;;8.48;2.00;;;;;;;25.00;24.91;100247.56;5400855;32;34069;-67
2022/05/28 10:27:50;;;;;;;5.50;1.70;;;;;;;25.58;25.45;100239.72;5401924;32;44309;-73
2022/05/28 10:30:53;;;;;;;4.07;1.55;;;;;;;25.97;24.36;100241.13;5383703;32;35451;-71
2022/05/28 10:33:56;;;;;;;6.12;1.67;;;;;;;25.60;24.32;100229.63;5382366;32;34319;-71
2022/05/28 10:37:10;;;;;;;5.05;2.30;;;;;;;26.73;24.66;100233.72;5400481;32;35815;-71
2022/05/28 10:40:17;;;;;;;5.20;1.92;;;;;;;25.83;25.79;100239.88;5381886;32;34379;-67
2022/05/28 10:43:37;;;;;;;5.45;1.83;;;;;;;25.04;24.87;100238.16;5417376;32;44740;-68
2022/05/28 10:46:51;;;;;;;5.85;1.90;;;;;;;23.77;26.60;100240.91;5384546;32;34438;-66
2022/05/28 10:50:07;;;;;;;5.93;1.80;;;;;;;24.84;25.50;100243.72;5398431;32;46126;-72
2022/05/28 10:53:13;;;;;;;7.25;2.42;;;;;;;23.88;27.08;100245.22;5386822;32;34578;-71
2022/05/28 10:56:27;;;;;;;6.90;2.08;;;;;;;23.83;26.50;100243.97;5356848;32;46873;-70
2022/05/28 10:59:46;;;;;;;4.15;1.77;;;;;;;23.43;27.37;100242.41;5415370;32;34748;-67
2022/05/28 11:03:14;;;;;;;5.82;1.95;;;;;;;22.92;27.34;100236.44;5401314;32;44322;-68
2022/05/28 11:06:31;;;;;;;4.50;2.00;;;;;;;23.07;26.73;100234.19;5394664;32;44565;-68
2022/05/28 11:09:36;;;;;;;3.75;1.77;;;;;;;24.00;26.30;100216.34;5416181;32;35501;-69
2022/05/28 11:12:57;;;;;;;4.35;1.73;;;;;;;22.74;28.77;100232.78;5391792;32;34753;-68
2022/05/28 11:16:11;;;;;;;5.93;2.17;;;;;;;23.10;28.34;100227.66;5399591;32;34999;-67
2022/05/28 11:19:34;;;;;;;5.53;2.05;;;;;;;22.73;28.48;100230.22;5412252;32;36503;-67
2022/05/28 11:22:39;;;;;;;9.57;2.08;;;;;;;22.34;28.05;100227.53;5381315;32;34455;-66
2022/05/28 11:26:02;;;;;;;5.37;1.73;;;;;;;23.11;26.94;100224.00;5410448;32;34810;-67
2022/05/28 11:29:30;;;;;;;3.25;1.58;;;;;;;22.46;27.64;100214.84;5377922;32;35658;-67
2022/05/28 11:32:54;;;;;;;4.60;1.80;;;;;;;22.79;27.38;100219.78;5369156;32;35286;-67
2022/05/28 11:36:05;;;;;;;7.43;2.28;;;;;;;23.68;25.72;100198.00;5382024;32;34424;-70
2022/05/28 11:39:38;;;;;;;6.62;1.98;;;;;;;23.03;26.28;100203.28;5368755;32;35157;-66
2022/05/28 11:42:52;;;;;;;6.93;1.70;;;;;;;23.96;24.82;100204.22;5389126;32;35492;-70
2022/05/28 11:46:17;;;;;;;5.95;2.05;;;;;;;24.20;24.35;100191.03;5407444;32;34921;-71
2022/05/28 11:52:50;;;;;;;7.47;2.05;;;;;;;22.93;25.78;100195.28;5402414;32;45172;-70
2022/05/28 11:55:54;;;;;;;6.62;1.92;;;;;;;22.21;26.12;100192.16;5373684;32;35515;-71
2022/05/28 11:59:05;;;;;;;5.22;2.00;;;;;;;21.96;26.59;100186.31;5382738;32;34696;-68
2022/05/28 12:02:11;;;;;;;8.02;2.33;;;;;;;22.59;26.15;100178.75;5398128;32;36438;-67
2022/05/28 12:05:22;;;;;;;6.05;1.73;;;;;;;22.69;26.01;100186.81;5377865;32;34502;-68
2022/05/28 12:08:27;;;;;;;4.37;1.67;;;;;;;23.10;24.24;100182.94;5399152;32;36743;-67
2022/05/28 12:11:49;;;;;;;4.15;1.60;;;;;;;21.47;26.13;100181.81;5391138;32;34143;-67
2022/05/28 12:15:08;;;;;;;8.68;1.65;;;;;;;22.27;24.51;100173.69;5396760;32;46693;-67
2022/05/28 12:18:10;;;;;;;5.37;1.55;;;;;;;21.86;25.02;100172.06;5395554;32;34892;-66
2022/05/28 12:21:24;;;;;;;5.53;1.75;;;;;;;21.90;24.97;100177.00;5397840;32;34212;-71
2022/05/28 12:24:28;;;;;;;5.12;1.60;;;;;;;22.22;24.55;100175.09;5414813;32;35105;-68
2022/05/28 12:27:44;;;;;;;5.85;1.90;;;;;;;22.14;24.79;100170.44;5387110;32;37263;-67
2022/05/28 12:30:48;;;;;;;5.53;2.37;;;;;;;22.43;23.74;100170.47;5390036;32;44691;-66
2022/05/28 12:33:56;;;;;;;6.37;1.30;;;;;;;22.13;24.05;100164.25;5411045;32;34691;-68
2022/05/28 12:37:00;;;;;;;4.93;1.67;;;;;;;22.49;23.90;100159.19;5381363;32;35261;-72
2022/05/28 12:40:08;;;;;;;2.15;1.30;;;;;;;23.03;22.96;100164.91;5393690;32;34714;-72
2022/05/28 12:43:16;;;;;;;4.50;1.42;;;;;;;23.34;23.07;100166.37;5406171;32;34609;-68
2022/05/28 12:46:36;;;;;;;4.00;1.60;;;;;;;22.49;23.22;100161.88;5396558;32;45616;-71
2022/05/28 12:49:41;;;;;;;3.60;1.83;;;;;;;22.09;24.05;100157.50;5401693;32;34401;-67
2022/05/28 12:52:57;;;;;;;6.57;1.73;;;;;;;22.13;24.23;100148.19;5404998;32;34020;-70
2022/05/28 12:56:39;;;;;;;6.37;1.77;;;;;;;22.11;23.83;100150.16;5384165;32;35427;-68
2022/05/28 12:59:47;;;;;;;5.20;1.60;;;;;;;22.53;23.96;100155.22;5410723;32;35132;-67
2022/05/28 13:02:50;;;;;;;4.07;1.40;;;;;;;22.61;23.62;100149.19;5390784;32;47180;-69
2022/05/28 13:06:01;;;;;;;4.75;1.40;;;;;;;22.27;23.27;100151.44;5394506;32;35663;-71
2022/05/28 13:09:07;;;;;;;7.70;2.20;;;;;;;21.55;24.59;100142.69;5402926;32;34250;-71
2022/05/28 13:12:12;;;;;;;5.12;1.40;;;;;;;21.38;24.96;100138.00;5411986;32;35597;-68
2022/05/28 13:15:24;;;;;;;4.78;1.20;;;;;;;22.11;24.00;100128.75;5398692;32;46868;-67
2022/05/28 13:18:55;;;;;;;8.60;1.62;;;;;;;21.36;24.83;100132.78;5404905;32;35220;-69
2022/05/28 13:22:42;;;;;;;5.93;2.28;;;;;;;20.60;25.79;100133.19;5421066;32;35569;-72
2022/05/28 13:26:18;;;;;;;5.53;1.77;;;;;;;21.63;24.84;100128.63;5362016;32;35870;-68
2022/05/28 13:29:31;;;;;;;4.00;1.60;;;;;;;22.42;23.48;100128.63;5401482;32;45257;-71
2022/05/28 13:32:49;;;;;;;5.75;1.95;;;;;;;21.59;24.09;100133.44;5402369;32;35447;-68
2022/05/28 13:35:56;;;;;;;3.12;1.30;;;;;;;21.83;23.49;100135.75;5371996;32;47251;-70
2022/05/28 13:38:59;;;;;;;6.87;1.40;;;;;;;22.26;23.22;100136.38;5402924;32;35784;-67
2022/05/28 13:42:03;;;;;;;5.35;1.45;;;;;;;22.19;23.44;100130.72;5411011;32;34538;-71
2022/05/28 13:45:06;;;;;;;4.50;1.40;;;;;;;22.26;23.05;100121.16;5400203;32;35440;-67
2022/05/28 13:48:14;;;;;;;4.60;1.60;;;;;;;21.67;24.06;100134.56;5402146;32;35183;-68
2022/05/28 13:51:17;;;;;;;4.15;1.40;;;;;;;22.45;22.91;100125.66;5391308;32;47825;-71
2022/05/28 13:54:19;;;;;;;6.28;1.45;;;;;;;22.64;22.30;100125.63;5390143;32;34306;-68
2022/05/28 13:57:21;;;;;;;3.17;1.35;;;;;;;21.52;23.27;100121.59;5383177;32;34989;-67
2022/05/28 14:00:29;;;;;;;4.60;1.58;;;;;;;22.38;22.41;100121.84;5400700;32;35198;-68
2022/05/28 14:03:37;;;;;;;4.70;1.40;;;;;;;22.75;22.33;100121.94;5411443;32;34228;-72
2022/05/28 14:06:46;;;;;;;3.87;1.52;;;;;;;22.06;23.09;100116.75;5372041;32;33985;-70
2022/05/28 14:09:48;;;;;;;6.12;1.52;;;;;;;22.42;22.57;100115.22;5413469;32;44518;-67
2022/05/28 14:12:51;;;;;;;5.40;1.20;;;;;;;21.58;23.22;100126.41;5384023;32;34809;-72
2022/05/28 14:15:54;;;;;;;3.35;1.20;;;;;;;21.88;22.04;100116.59;5387151;32;34488;-69
2022/05/28 14:18:59;;;;;;;2.50;0.90;;;;;;;22.24;21.98;100114.25;5402326;32;34712;-71
2022/05/28 14:22:05;;;;;;;4.45;1.35;;;;;;;22.13;22.91;100113.41;5396679;32;34760;-70
2022/05/28 14:25:08;;;;;;;2.85;1.17;;;;;;;22.26;22.20;100126.50;5412615;32;34880;-70
2022/05/28 14:28:31;;;;;;;4.75;1.10;;;;;;;21.90;22.46;100111.97;5386024;32;35542;-69
2022/05/28 14:31:33;;;;;;;5.68;1.75;;;;;;;21.58;22.89;100094.31;5405096;32;35298;-66
2022/05/28 14:34:42;;;;;;;6.40;1.40;;;;;;;21.88;22.13;100100.53;5377532;32;35170;-72
2022/05/28 14:37:44;;;;;;;8.20;1.50;;;;;;;22.01;21.19;100097.59;5384399;32;34457;-66